createdAt,value
2023-02-12T00:03:00.278Z,99.90
2023-02-12T00:08:10.429Z,99.90
2023-02-12T00:13:16.780Z,99.90
2023-02-12T00:18:23.156Z,99.90
2023-02-12T00:23:29.695Z,99.90
2023-02-12T00:28:36.677Z,99.90
2023-02-12T00:33:43.413Z,99.90
2023-02-12T00:38:51.091Z,99.90
2023-02-12T00:43:56.862Z,99.90
2023-02-12T00:49:03.539Z,99.90
2023-02-12T00:54:09.302Z,99.90
2023-02-12T00:59:15.397Z,99.90
2023-02-12T01:04:21.093Z,99.90
2023-02-12T01:09:27.076Z,99.90
2023-02-12T01:14:33.025Z,99.90
2023-02-12T01:19:40.015Z,99.90
2023-02-12T01:24:46.144Z,99.90
2023-02-12T01:29:51.783Z,99.90
2023-02-12T01:34:59.689Z,99.90
2023-02-12T01:40:07.673Z,99.90
2023-02-12T01:45:20.340Z,99.90
2023-02-12T01:50:27.734Z,99.90
2023-02-12T01:55:34.385Z,99.90
2023-02-12T02:00:43.047Z,99.90
2023-02-12T02:06:03.143Z,99.90
2023-02-12T02:11:29.358Z,99.90
2023-02-12T02:16:39.824Z,99.90
2023-02-12T02:22:17.932Z,99.90
2023-02-12T02:27:34.438Z,99.90
2023-02-12T02:39:49.536Z,99.90
2023-02-12T02:45:22.509Z,99.90
2023-02-12T02:50:38.101Z,99.90
2023-02-12T02:56:04.403Z,99.90
2023-02-12T03:01:32.940Z,99.90
2023-02-12T03:06:50.586Z,99.90
2023-02-12T03:20:01.951Z,99.90
2023-02-12T03:25:41.314Z,99.90
2023-02-12T03:31:03.573Z,99.90
2023-02-12T03:36:26.771Z,99.80
2023-02-12T03:41:46.141Z,98.00
2023-02-12T03:47:17.857Z,99.70
2023-02-12T03:52:23.926Z,97.60
2023-02-12T03:57:32.765Z,97.10
2023-02-12T04:02:38.923Z,95.20
2023-02-12T04:07:44.051Z,94.60
2023-02-12T04:13:06.681Z,96.00
2023-02-12T04:18:33.449Z,95.00
2023-02-12T04:23:48.556Z,93.60
2023-02-12T04:29:11.881Z,93.20
2023-02-12T04:35:01.061Z,91.80
2023-02-12T04:40:10.037Z,90.60
2023-02-12T04:45:19.659Z,91.90
2023-02-12T04:50:27.026Z,88.80
2023-02-12T04:55:32.360Z,81.00
2023-02-12T05:00:43.244Z,77.10
2023-02-12T05:06:07.738Z,77.90
2023-02-12T05:11:16.521Z,76.90
2023-02-12T05:16:26.254Z,80.60
2023-02-12T05:21:31.483Z,82.90
2023-02-12T05:26:38.366Z,82.00
2023-02-12T05:31:44.631Z,84.00
2023-02-12T05:36:50.220Z,84.90
2023-02-12T05:41:55.546Z,88.40
2023-02-12T05:47:00.614Z,89.30
2023-02-12T05:52:06.283Z,91.80
2023-02-12T05:57:11.646Z,92.00
2023-02-12T06:02:18.148Z,81.90
2023-02-12T06:07:24.589Z,74.00
2023-02-12T06:12:53.101Z,69.70
2023-02-12T06:17:58.568Z,68.20
2023-02-12T06:23:07.088Z,65.90
2023-02-12T06:35:39.672Z,62.30
2023-02-12T06:40:48.580Z,62.00
2023-02-12T06:45:54.576Z,62.50
2023-02-12T06:51:33.997Z,69.80
2023-02-12T07:03:22.634Z,77.10
2023-02-12T07:09:39.630Z,69.80
2023-02-12T07:14:50.955Z,66.60
2023-02-12T07:19:59.068Z,79.60
2023-02-12T07:25:04.174Z,81.50
2023-02-12T07:30:10.177Z,81.50
2023-02-12T07:35:15.544Z,88.50
2023-02-12T07:40:21.113Z,88.30
2023-02-12T07:45:32.704Z,84.80
2023-02-12T07:50:40.108Z,74.90
2023-02-12T08:02:56.070Z,82.70
2023-02-12T08:08:01.155Z,76.80
2023-02-12T08:13:09.640Z,79.10
2023-02-12T08:18:15.130Z,82.60
2023-02-12T08:23:21.486Z,87.60
2023-02-12T08:28:51.394Z,91.50
2023-02-12T08:33:57.593Z,95.40
2023-02-12T08:39:06.042Z,98.40
2023-02-12T08:44:14.439Z,99.50
2023-02-12T08:49:26.077Z,99.80
2023-02-12T08:54:33.791Z,99.90
2023-02-12T08:59:39.186Z,99.90
2023-02-12T09:04:44.650Z,99.90
2023-02-12T09:09:50.145Z,99.90
2023-02-12T09:14:55.639Z,99.90
2023-02-12T09:20:02.828Z,99.90
2023-02-12T09:25:09.131Z,99.90
2023-02-12T09:30:15.801Z,99.90
2023-02-12T09:35:27.325Z,99.90
2023-02-12T09:40:42.272Z,99.90
2023-02-12T09:46:16.996Z,99.90
2023-02-12T09:51:23.149Z,99.90
2023-02-12T09:57:08.648Z,99.90
2023-02-12T10:02:18.569Z,99.90
2023-02-12T10:07:33.549Z,99.90
2023-02-12T10:13:01.809Z,99.90
2023-02-12T10:18:25.810Z,99.90
2023-02-12T10:23:48.422Z,99.90
2023-02-12T10:28:54.792Z,99.90
2023-02-12T10:34:04.919Z,99.90
2023-02-12T10:39:16.004Z,99.90
2023-02-12T10:44:23.217Z,99.90
2023-02-12T10:49:28.738Z,99.90
2023-02-12T10:54:45.972Z,99.90
2023-02-12T10:59:54.701Z,99.90
2023-02-12T11:05:02.776Z,99.90
2023-02-12T11:10:27.682Z,99.90
2023-02-12T11:15:48.455Z,99.90
2023-02-12T11:21:00.561Z,99.90
2023-02-12T11:26:36.967Z,99.90
2023-02-12T11:31:43.068Z,99.90
2023-02-12T11:36:54.729Z,99.90
2023-02-12T11:42:06.216Z,99.90
2023-02-12T11:47:19.076Z,99.90
2023-02-12T11:52:28.738Z,99.90
2023-02-12T11:57:50.232Z,99.90
2023-02-12T12:03:05.273Z,99.90
2023-02-12T12:08:38.553Z,99.90
2023-02-12T12:14:15.241Z,99.90
2023-02-12T12:20:21.381Z,99.90
2023-02-12T12:25:55.095Z,99.90
2023-02-12T12:31:29.534Z,99.90
2023-02-12T12:37:29.407Z,99.90
2023-02-12T12:43:03.716Z,99.90
2023-02-12T12:49:00.491Z,99.90
2023-02-12T12:54:22.962Z,99.90
2023-02-12T12:59:53.965Z,99.90
2023-02-12T13:05:19.530Z,99.90
2023-02-12T13:17:19.130Z,99.90
2023-02-12T13:22:34.095Z,99.90
2023-02-12T13:33:24.132Z,99.90
2023-02-12T13:39:41.835Z,99.90
2023-02-12T13:45:36.613Z,99.90
2023-02-12T13:51:19.891Z,99.90
2023-02-12T14:03:19.379Z,99.90
2023-02-12T14:08:59.911Z,99.90
2023-02-12T14:14:51.518Z,99.90
2023-02-12T14:27:52.461Z,99.90
2023-02-12T14:33:22.944Z,99.90
2023-02-12T14:38:46.874Z,99.90
2023-02-12T14:45:05.561Z,99.90
2023-02-12T14:51:29.406Z,99.90
2023-02-12T14:56:46.043Z,99.90
2023-02-12T15:07:52.285Z,99.90
2023-02-12T15:13:39.073Z,99.90
2023-02-12T15:24:29.688Z,99.90
2023-02-12T15:29:46.788Z,99.90
2023-02-12T15:34:57.565Z,99.90
2023-02-12T15:40:11.335Z,99.90
2023-02-12T15:45:53.842Z,99.90
2023-02-12T15:51:30.174Z,99.90
2023-02-12T15:56:37.773Z,99.90
2023-02-12T16:01:56.667Z,99.90
2023-02-12T16:07:03.863Z,99.90
2023-02-12T16:12:15.440Z,99.90
2023-02-12T16:17:36.886Z,99.90
2023-02-12T16:22:45.270Z,99.90
2023-02-12T16:28:19.918Z,99.90
2023-02-12T16:33:39.330Z,99.90
2023-02-12T16:38:53.893Z,99.90
2023-02-12T16:44:08.696Z,99.90
2023-02-12T16:49:22.672Z,99.90
2023-02-12T16:54:38.380Z,99.90
2023-02-12T16:59:47.005Z,99.90
2023-02-12T17:04:55.060Z,99.90
2023-02-12T17:10:02.936Z,99.90
2023-02-12T17:15:09.324Z,99.90
2023-02-12T17:20:17.355Z,99.90
2023-02-12T17:25:23.532Z,99.90
2023-02-12T17:30:30.459Z,99.90
2023-02-12T17:35:36.611Z,99.90
2023-02-12T17:40:42.574Z,99.90
2023-02-12T17:45:48.824Z,99.90
2023-02-12T17:51:01.964Z,99.90
2023-02-12T17:56:11.751Z,99.90
2023-02-12T18:01:20.914Z,99.90
2023-02-12T18:06:33.135Z,99.90
2023-02-12T18:11:43.972Z,99.90
2023-02-12T18:16:50.198Z,99.90
2023-02-12T18:21:56.929Z,99.90
2023-02-12T18:27:03.859Z,99.90
2023-02-12T18:32:16.008Z,99.90
2023-02-12T18:37:22.777Z,99.90
2023-02-12T18:42:30.080Z,99.90
2023-02-12T18:47:36.284Z,99.90
2023-02-12T18:52:58.602Z,99.90
2023-02-12T18:58:04.264Z,99.90
2023-02-12T19:03:09.894Z,99.90
2023-02-12T19:08:16.102Z,99.90
2023-02-12T19:13:21.983Z,99.90
2023-02-12T19:18:27.943Z,99.90
2023-02-12T19:23:33.256Z,99.90
2023-02-12T19:28:42.735Z,99.90
2023-02-12T19:33:50.051Z,99.90
2023-02-12T19:38:56.219Z,99.90
2023-02-12T19:44:04.351Z,99.90
2023-02-12T19:49:14.402Z,99.90
2023-02-12T19:54:21.908Z,99.90
2023-02-12T19:59:28.665Z,99.90
2023-02-12T20:04:35.633Z,99.90
2023-02-12T20:09:41.875Z,99.90
2023-02-12T20:15:04.371Z,99.90
2023-02-12T20:20:11.961Z,99.90
2023-02-12T20:25:17.726Z,99.90
2023-02-12T20:30:24.136Z,99.90
2023-02-12T20:35:31.165Z,99.90
2023-02-12T20:40:36.876Z,99.90
2023-02-12T20:45:43.045Z,99.90
2023-02-12T20:50:49.079Z,99.90
2023-02-12T20:55:54.134Z,99.90
2023-02-12T21:01:22.944Z,99.90
2023-02-12T21:06:28.947Z,99.90
2023-02-12T21:11:34.594Z,99.90
2023-02-12T21:16:48.931Z,99.90
2023-02-12T21:21:55.333Z,99.90
2023-02-12T21:27:01.380Z,99.90
2023-02-12T21:32:06.597Z,99.90
2023-02-12T21:37:12.484Z,99.90
2023-02-12T21:42:18.394Z,99.90
2023-02-12T21:47:24.324Z,99.90
2023-02-12T21:52:30.533Z,99.90
2023-02-12T21:57:36.263Z,99.90
2023-02-12T22:02:42.313Z,99.90
2023-02-12T22:07:52.554Z,99.90
2023-02-12T22:12:59.059Z,99.90
2023-02-12T22:18:05.320Z,99.90
2023-02-12T22:23:10.656Z,99.90
2023-02-12T22:28:16.837Z,99.90
2023-02-12T22:33:24.692Z,99.90
2023-02-12T22:38:30.951Z,99.90
2023-02-12T22:43:39.276Z,99.90
2023-02-12T22:48:45.798Z,99.90
2023-02-12T22:53:52.215Z,99.90
2023-02-12T22:59:00.324Z,99.90
2023-02-12T23:04:06.519Z,99.90
2023-02-12T23:09:15.981Z,99.90
2023-02-12T23:14:22.771Z,99.90
2023-02-12T23:19:28.491Z,99.90
2023-02-12T23:24:34.728Z,99.90
2023-02-12T23:29:41.824Z,99.90
2023-02-12T23:34:48.206Z,99.90
2023-02-12T23:40:11.481Z,99.90
2023-02-12T23:45:33.295Z,99.90
2023-02-12T23:50:39.853Z,99.90
2023-02-12T23:55:46.036Z,99.90
